(°C)
26°
25°
25°
24°
23°
23°
22°
(°C)
27°
27°
26°
25°
25°
24°
24°
NE
ENE
ENE
E
E
E
E
(km/h)
6-13
6-15
6-16
6-16
6-15
6-14
5-12
(mm)
0
0
0
0
0
0
0
(%)
0
0
0
0
0
0
0

Wysokość słońca

/ -32.7°
sun-icon
UV 8
07:19
19:21
Trzecia kwadra (264°)
00:00
14:08

METAR dla Tampa (KTPF)

Czas Warunki Temperatura/
Punkt rosy
Wiatr Widzialność Pogoda Chmury Ciśn. atm. Zmień Surowy
VFR 25°C / 17°C 60º 3kt >10km - Scattered Clouds 8000ft - KTPF 290135Z AUTO 06003KT 10SM SCT080 BKN095 OVC120 25/17 A3000 RMK AO2
VFR 26°C / 17°C 70º 3kt >10km - Broken Clouds 9500ft - KTPF 290115Z AUTO 07003KT 10SM BKN095 OVC120 26/17 A3000 RMK AO2
VFR 26°C / 17°C 70º 4kt >10km - Broken Clouds 9500ft - KTPF 290055Z AUTO 07004KT 10SM BKN095 OVC110 26/17 A2999 RMK AO2
VFR 26°C / 17°C 80º 5kt >10km - Scattered Clouds 7500ft - KTPF 290035Z AUTO 08005KT 10SM SCT075 BKN095 OVC120 26/17 A2999 RMK AO2
VFR 26°C / 17°C 70º 4kt >10km - Scattered Clouds 7500ft - KTPF 290015Z AUTO 07004KT 10SM SCT075 BKN095 OVC120 26/17 A2998 RMK AO2
VFR 27°C / 17°C 80º 4kt >10km - Broken Clouds 10000ft - KTPF 282355Z AUTO 08004KT 10SM BKN100 OVC120 27/17 A2998 RMK AO2
VFR 27°C / 17°C 80º 5kt >10km - Broken Clouds 11000ft - KTPF 282335Z AUTO 08005KT 10SM BKN110 27/17 A2998 RMK AO2
VFR 27°C / 16°C 80º 5kt >10km - Overcast 11000ft - KTPF 282315Z AUTO 08005KT 10SM OVC110 27/16 A2997 RMK AO2
VFR 28°C / 17°C 70º 6kt >10km - Scattered Clouds 7000ft - KTPF 282255Z AUTO 07006KT 10SM SCT070 OVC110 28/17 A2997 RMK AO2
VFR 28°C / 16°C 70º 7kt >10km - Scattered Clouds 7000ft - KTPF 282235Z AUTO 07007KT 10SM SCT070 OVC090 28/16 A2997 RMK AO2
VFR 30°C / 17°C 70º 8kt >10km - Broken Clouds 7000ft - KTPF 282215Z AUTO 07008KT 10SM BKN070 OVC100 30/17 A2997 RMK AO2
VFR 29°C / 16°C 50º 5kt >10km - Scattered Clouds 6500ft - KTPF 282155Z AUTO 05005KT 10SM SCT065 OVC110 29/16 A2996 RMK AO2
VFR 29°C / 17°C 60º 7kt >10km - Broken Clouds 6500ft - KTPF 282135Z AUTO 06007KT 10SM BKN065 BKN080 OVC100 29/17 A2996 RMK AO2
VFR 31°C / 17°C 90º 8kt >10km - Scattered Clouds 6500ft - KTPF 282115Z AUTO 09008KT 10SM SCT065 OVC100 31/17 A2996 RMK AO2
VFR 31°C / 17°C 70º 3kt >10km - Scattered Clouds 6500ft - KTPF 282055Z AUTO 07003KT 10SM SCT065 SCT080 OVC100 31/17 A2996 RMK AO2
VFR 31°C / 17°C 80º 8kt >10km - Scattered Clouds 6500ft - KTPF 282035Z AUTO 08008KT 10SM SCT065 OVC100 31/17 A2997 RMK AO2
VFR 30°C / 16°C variable 0kt >10km - Broken Clouds 7000ft - KTPF 282015Z AUTO 00000KT 10SM BKN070 OVC100 30/16 A2997 RMK AO2
VFR 32°C / 17°C 60º 8kt >10km - Scattered Clouds 7000ft - KTPF 281955Z AUTO 06008KT 10SM SCT070 SCT080 OVC095 32/17 A2997 RMK AO2
VFR 30°C / 16°C 20º 3kt >10km - Scattered Clouds 7000ft - KTPF 281935Z AUTO 02003KT 10SM SCT070 BKN095 OVC110 30/16 A2998 RMK AO2
VFR 32°C / 17°C variable 0kt >10km - Overcast 9500ft - KTPF 281915Z AUTO 00000KT 10SM OVC095 32/17 A3000 RMK AO2
VFR 32°C / 17°C 30º 5kt >10km - Overcast 9500ft - KTPF 281855Z AUTO 03005KT 10SM OVC095 32/17 A3001 RMK AO2
VFR 31°C / 16°C 60º 5kt >10km - Scattered Clouds 7000ft - KTPF 281835Z AUTO 06005KT 10SM SCT070 BKN095 OVC110 31/16 A3001 RMK AO2
VFR 32°C / 18°C 40º 6kt >10km - Scattered Clouds 7000ft - KTPF 281815Z AUTO 04006KT 10SM SCT070 OVC095 32/18 A3002 RMK AO2
VFR 31°C / 17°C 80º 5kt >10km - Scattered Clouds 7000ft - KTPF 281755Z AUTO 08005KT 7SM SCT070 BKN095 OVC120 31/17 A3003 RMK AO2

VFR

25°C / 17°C

[Więcej]
Wiatr 60º 3kt
Widzialność >10km
Pogoda -
Chmury Scattered Clouds 8000ft
Ciśn. atm.
Zmień -
Surowy KTPF 290135Z AUTO 06003KT 10SM SCT080 BKN095 OVC120 25/17 A3000 RMK AO2

VFR

26°C / 17°C

[Więcej]
Wiatr 70º 3kt
Widzialność >10km
Pogoda -
Chmury Broken Clouds 9500ft
Ciśn. atm.
Zmień -
Surowy KTPF 290115Z AUTO 07003KT 10SM BKN095 OVC120 26/17 A3000 RMK AO2

VFR

26°C / 17°C

[Więcej]
Wiatr 70º 4kt
Widzialność >10km
Pogoda -
Chmury Broken Clouds 9500ft
Ciśn. atm.
Zmień -
Surowy KTPF 290055Z AUTO 07004KT 10SM BKN095 OVC110 26/17 A2999 RMK AO2

VFR

26°C / 17°C

[Więcej]
Wiatr 80º 5kt
Widzialność >10km
Pogoda -
Chmury Scattered Clouds 7500ft
Ciśn. atm.
Zmień -
Surowy KTPF 290035Z AUTO 08005KT 10SM SCT075 BKN095 OVC120 26/17 A2999 RMK AO2

VFR

26°C / 17°C

[Więcej]
Wiatr 70º 4kt
Widzialność >10km
Pogoda -
Chmury Scattered Clouds 7500ft
Ciśn. atm.
Zmień -
Surowy KTPF 290015Z AUTO 07004KT 10SM SCT075 BKN095 OVC120 26/17 A2998 RMK AO2

VFR

27°C / 17°C

[Więcej]
Wiatr 80º 4kt
Widzialność >10km
Pogoda -
Chmury Broken Clouds 10000ft
Ciśn. atm.
Zmień -
Surowy KTPF 282355Z AUTO 08004KT 10SM BKN100 OVC120 27/17 A2998 RMK AO2

VFR

27°C / 17°C

[Więcej]
Wiatr 80º 5kt
Widzialność >10km
Pogoda -
Chmury Broken Clouds 11000ft
Ciśn. atm.
Zmień -
Surowy KTPF 282335Z AUTO 08005KT 10SM BKN110 27/17 A2998 RMK AO2

VFR

27°C / 16°C

[Więcej]
Wiatr 80º 5kt
Widzialność >10km
Pogoda -
Chmury Overcast 11000ft
Ciśn. atm.
Zmień -
Surowy KTPF 282315Z AUTO 08005KT 10SM OVC110 27/16 A2997 RMK AO2

VFR

28°C / 17°C

[Więcej]
Wiatr 70º 6kt
Widzialność >10km
Pogoda -
Chmury Scattered Clouds 7000ft
Ciśn. atm.
Zmień -
Surowy KTPF 282255Z AUTO 07006KT 10SM SCT070 OVC110 28/17 A2997 RMK AO2

VFR

28°C / 16°C

[Więcej]
Wiatr 70º 7kt
Widzialność >10km
Pogoda -
Chmury Scattered Clouds 7000ft
Ciśn. atm.
Zmień -
Surowy KTPF 282235Z AUTO 07007KT 10SM SCT070 OVC090 28/16 A2997 RMK AO2

VFR

30°C / 17°C

[Więcej]
Wiatr 70º 8kt
Widzialność >10km
Pogoda -
Chmury Broken Clouds 7000ft
Ciśn. atm.
Zmień -
Surowy KTPF 282215Z AUTO 07008KT 10SM BKN070 OVC100 30/17 A2997 RMK AO2

VFR

29°C / 16°C

[Więcej]
Wiatr 50º 5kt
Widzialność >10km
Pogoda -
Chmury Scattered Clouds 6500ft
Ciśn. atm.
Zmień -
Surowy KTPF 282155Z AUTO 05005KT 10SM SCT065 OVC110 29/16 A2996 RMK AO2

VFR

29°C / 17°C

[Więcej]
Wiatr 60º 7kt
Widzialność >10km
Pogoda -
Chmury Broken Clouds 6500ft
Ciśn. atm.
Zmień -
Surowy KTPF 282135Z AUTO 06007KT 10SM BKN065 BKN080 OVC100 29/17 A2996 RMK AO2

VFR

31°C / 17°C

[Więcej]
Wiatr 90º 8kt
Widzialność >10km
Pogoda -
Chmury Scattered Clouds 6500ft
Ciśn. atm.
Zmień -
Surowy KTPF 282115Z AUTO 09008KT 10SM SCT065 OVC100 31/17 A2996 RMK AO2

VFR

31°C / 17°C

[Więcej]
Wiatr 70º 3kt
Widzialność >10km
Pogoda -
Chmury Scattered Clouds 6500ft
Ciśn. atm.
Zmień -
Surowy KTPF 282055Z AUTO 07003KT 10SM SCT065 SCT080 OVC100 31/17 A2996 RMK AO2

VFR

31°C / 17°C

[Więcej]
Wiatr 80º 8kt
Widzialność >10km
Pogoda -
Chmury Scattered Clouds 6500ft
Ciśn. atm.
Zmień -
Surowy KTPF 282035Z AUTO 08008KT 10SM SCT065 OVC100 31/17 A2997 RMK AO2

VFR

30°C / 16°C

[Więcej]
Wiatr variable 0kt
Widzialność >10km
Pogoda -
Chmury Broken Clouds 7000ft
Ciśn. atm.
Zmień -
Surowy KTPF 282015Z AUTO 00000KT 10SM BKN070 OVC100 30/16 A2997 RMK AO2

VFR

32°C / 17°C

[Więcej]
Wiatr 60º 8kt
Widzialność >10km
Pogoda -
Chmury Scattered Clouds 7000ft
Ciśn. atm.
Zmień -
Surowy KTPF 281955Z AUTO 06008KT 10SM SCT070 SCT080 OVC095 32/17 A2997 RMK AO2

VFR

30°C / 16°C

[Więcej]
Wiatr 20º 3kt
Widzialność >10km
Pogoda -
Chmury Scattered Clouds 7000ft
Ciśn. atm.
Zmień -
Surowy KTPF 281935Z AUTO 02003KT 10SM SCT070 BKN095 OVC110 30/16 A2998 RMK AO2

VFR

32°C / 17°C

[Więcej]
Wiatr variable 0kt
Widzialność >10km
Pogoda -
Chmury Overcast 9500ft
Ciśn. atm.
Zmień -
Surowy KTPF 281915Z AUTO 00000KT 10SM OVC095 32/17 A3000 RMK AO2

VFR

32°C / 17°C

[Więcej]
Wiatr 30º 5kt
Widzialność >10km
Pogoda -
Chmury Overcast 9500ft
Ciśn. atm.
Zmień -
Surowy KTPF 281855Z AUTO 03005KT 10SM OVC095 32/17 A3001 RMK AO2

VFR

31°C / 16°C

[Więcej]
Wiatr 60º 5kt
Widzialność >10km
Pogoda -
Chmury Scattered Clouds 7000ft
Ciśn. atm.
Zmień -
Surowy KTPF 281835Z AUTO 06005KT 10SM SCT070 BKN095 OVC110 31/16 A3001 RMK AO2

VFR

32°C / 18°C

[Więcej]
Wiatr 40º 6kt
Widzialność >10km
Pogoda -
Chmury Scattered Clouds 7000ft
Ciśn. atm.
Zmień -
Surowy KTPF 281815Z AUTO 04006KT 10SM SCT070 OVC095 32/18 A3002 RMK AO2

VFR

31°C / 17°C

[Więcej]
Wiatr 80º 5kt
Widzialność >10km
Pogoda -
Chmury Scattered Clouds 7000ft
Ciśn. atm.
Zmień -
Surowy KTPF 281755Z AUTO 08005KT 7SM SCT070 BKN095 OVC120 31/17 A3003 RMK AO2

Aktualne zdjęcia satelitarne dla Tampa, Stany Zjednoczone

Wskaźnik lokalizacji znajduje się na Tampa. [Więcej]

Obraz satelitarny w czasie rzeczywistym łączy światło widzialne w ciągu dnia z promieniowaniem podczerwonym w nocy. W nocy obraz nie jest ciemny, ponieważ promieniowanie podczerwone może wykrywać różnice temperatur. Niestety niskie chmury i mgłę trudno odróżnić od temperatury gruntu, przez co mogą być prawie niewidoczne w nocy. Zdjęcia satelitarne Meteosat dla Europy są aktualizowane w czasie rzeczywistym co 5 minut. Obrazy GOES-16/GOES-17 (Ameryka Północna i Południowa) oraz Himawari (Azja) są aktualizowane co 10 minut.

Radar i prognoza opadów na teraz dla Tampa

Mżawka
Lekki
Umiarkowane
Ulewne
Bardzo ciężkie
Grad

Wskaźnik lokalizacji jest umieszczony na Tampa. Animacja przedstawia radar opadów dla ostatniej godziny, jak również 1h prognozę pogody. Mżawka lub lekki opad śniegu może być niewidoczny dla radaru. Intensywność opadów jest oznaczona kolorami, od jasnoniebieskiego do pomarańczowego.